This is the latest recevied weather packets stored in our database for station/object OE-11150. If no packets are shown the sender has not sent any weather packets the latest 10 day(s).
| Time | Temp. | Humidity | Pressure | Rain* | Wind** | Luminosity | Snow |
|---|---|---|---|---|---|---|---|
| 1788140482 | 18.33° C | 92% | 1014.6 hPa | 2.03 mm | - | - | - |
| 1788140109 | 18.33° C | 88% | 1014.6 hPa | 1.52 mm | - | - | - |
| 1788139509 | 18.33° C | 90% | 1015.4 hPa | 1.52 mm | - | - | - |
| 1788138681 | 18.33° C | 90% | 1015.7 hPa | 1.52 mm | - | - | - |
| 1788138309 | 18.33° C | 91% | 1015.9 hPa | 1.27 mm | - | - | - |
| 1788137709 | 18.89° C | 86% | 1015.7 hPa | 1.27 mm | - | - | - |
| 1788136881 | 18.89° C | 87% | 1015.7 hPa | 0.51 mm | - | - | - |
| 1788136509 | 19.44° C | 82% | 1015.5 hPa | 0 mm | - | - | - |
| 1788135909 | 18.89° C | 86% | 1015.8 hPa | 0 mm | - | - | - |
| 1788135082 | 18.89° C | 86% | 1015.7 hPa | 0 mm | - | - | - |
| 1788134709 | 18.89° C | 85% | 1015.7 hPa | 0 mm | - | - | - |
| 1788134109 | 18.89° C | 86% | 1015.7 hPa | 0 mm | - | - | - |
| 1788133520 | 18.89° C | 85% | 1015.5 hPa | 0 mm | - | - | - |
| 1788132908 | 18.89° C | 85% | 1015.5 hPa | 0 mm | - | - | - |
| 1788132308 | 18.89° C | 84% | 1015.3 hPa | 0 mm | - | - | - |
| 1788131709 | 18.89° C | 84% | 1015.2 hPa | 0 mm | - | - | - |
| 1788131109 | 18.89° C | 85% | 1015.4 hPa | 0 mm | - | - | - |
| 1788130509 | 18.89° C | 85% | 1015.5 hPa | 0 mm | - | - | - |
| 1788129682 | 18.89° C | 84% | 1015.5 hPa | 0 mm | - | - | - |
| 1788129309 | 18.89° C | 84% | 1015.5 hPa | 0 mm | - | - | - |
| 1788128709 | 19.44° C | 83% | 1015.4 hPa | 0 mm | - | - | - |
| 1788127883 | 19.44° C | 83% | 1015.2 hPa | 0 mm | - | - | - |
| 1788127509 | 19.44° C | 83% | 1015.3 hPa | 0 mm | - | - | - |
| 1788126909 | 19.44° C | 83% | 1015.3 hPa | 0 mm | - | - | - |
| 1788126082 | 19.44° C | 87% | 1015.3 hPa | 0 mm | - | - | - |
* Rain latest hour (hover to see other rain measurements)
** Current wind speed in m/s (hover to see current wind gust speed)